PWSweather.com
Personal Weather Stations
Station Observations
KCAFRAZI5
West End Drive Area, Frazier Park, CA 93225

West End Drive AreaFrazier Park, CA 93225

Lat: 34.82109, Lon: -118.96053

Elevation: 4940

Station Type: Davis Vantage Pro 2

http://www.fpweather.com

High Low Average
Temperature 72.1°F22.3°C 43.9°F6.6°C 59.4°F15.2°C
Dew Point 23.6°F-4.7°C -12.4°F-24.7°C 6.8°F-14.0°C
Winds 15.0 mph 24.1 kmh Calm Calm 5.0 mph S8.0 kmh S
Wind Gusts 17.0 mph27.4 kmh 3.0 mph4.8 kmh 9.0 mph14.5 kmh
Humidity 38% 5% 15%
Pressure 29.82 in1009.8 mb 29.71 in1006.1 mb -
Precipitation 0.00 in0.0 mm - -
Hour Temp Dew Point Humidity Winds Wind Gusts Pressure Precip Precip Rate Daily Precip Total
12:00 AM 51.3°F10.7°C 35.2°F1.8°C 54% 6.0 mph S9.7 kmh S 9.0 mph14.5 kmh 29.74 in1007.1 mb 0.00 in0.0 mm 0.00 in0.0 mm 0.00 in0.0 mm
12:15 AM 50.9°F10.5°C 30.3°F-0.9°C 45% 3.0 mph SE4.8 kmh SE 5.0 mph8.0 kmh 29.75 in1007.5 mb 0.00 in0.0 mm 0.00 in0.0 mm 0.00 in0.0 mm
12:30 AM 50.4°F10.2°C 22.4°F-5.3°C 33% 4.0 mph S6.4 kmh S 10.0 mph16.1 kmh 29.75 in1007.5 mb 0.00 in0.0 mm 0.00 in0.0 mm 0.00 in0.0 mm
12:45 AM 50.0°F10.0°C 19.8°F-6.8°C 30% 5.0 mph SE8.0 kmh SE 6.0 mph9.7 kmh 29.75 in1007.5 mb 0.00 in0.0 mm 0.00 in0.0 mm 0.00 in0.0 mm
01:00 AM 49.4°F9.7°C 19.3°F-7.1°C 30% 5.0 mph SSW8.0 kmh SSW 8.0 mph12.9 kmh 29.74 in1007.1 mb 0.00 in0.0 mm 0.00 in0.0 mm 0.00 in0.0 mm
01:15 AM 49.0°F9.4°C 21.9°F-5.6°C 34% 4.0 mph S6.4 kmh S 9.0 mph14.5 kmh 29.75 in1007.5 mb 0.00 in0.0 mm 0.00 in0.0 mm 0.00 in0.0 mm
01:30 AM 48.7°F9.3°C 23.6°F-4.7°C 37% Calm Calm 4.0 mph6.4 kmh 29.74 in1007.1 mb 0.00 in0.0 mm 0.00 in0.0 mm 0.00 in0.0 mm
01:45 AM 48.5°F9.2°C 22.8°F-5.1°C 36% Calm Calm 3.0 mph4.8 kmh 29.73 in1006.8 mb 0.00 in0.0 mm 0.00 in0.0 mm 0.00 in0.0 mm
02:00 AM 48.4°F9.1°C 18.4°F-7.6°C 30% 6.0 mph S9.7 kmh S 6.0 mph9.7 kmh 29.74 in1007.1 mb 0.00 in0.0 mm 0.00 in0.0 mm 0.00 in0.0 mm
02:15 AM 47.5°F8.6°C 19.1°F-7.2°C 32% Calm Calm 4.0 mph6.4 kmh 29.73 in1006.8 mb 0.00 in0.0 mm 0.00 in0.0 mm 0.00 in0.0 mm
02:30 AM 47.2°F8.4°C 18.1°F-7.7°C 31% Calm Calm 3.0 mph4.8 kmh 29.76 in1007.8 mb 0.00 in0.0 mm 0.00 in0.0 mm 0.00 in0.0 mm
02:45 AM 47.2°F8.4°C 18.1°F-7.7°C 31% 2.0 mph S3.2 kmh S 5.0 mph8.0 kmh 29.76 in1007.8 mb 0.00 in0.0 mm 0.00 in0.0 mm 0.00 in0.0 mm
03:00 AM 47.3°F8.5°C 16.7°F-8.5°C 29% 1.0 mph S1.6 kmh S 3.0 mph4.8 kmh 29.77 in1008.1 mb 0.00 in0.0 mm 0.00 in0.0 mm 0.00 in0.0 mm
03:15 AM 47.5°F8.6°C 16.0°F-8.9°C 28% 6.0 mph SSE9.7 kmh SSE 7.0 mph11.3 kmh 29.77 in1008.1 mb 0.00 in0.0 mm 0.00 in0.0 mm 0.00 in0.0 mm
03:30 AM 47.6°F8.7°C 15.3°F-9.3°C 27% 5.0 mph SSE8.0 kmh SSE 10.0 mph16.1 kmh 29.76 in1007.8 mb 0.00 in0.0 mm 0.00 in0.0 mm 0.00 in0.0 mm
03:45 AM 48.1°F8.9°C 14.0°F-10.0°C 25% 5.0 mph S8.0 kmh S 5.0 mph8.0 kmh 29.75 in1007.5 mb 0.00 in0.0 mm 0.00 in0.0 mm 0.00 in0.0 mm
04:00 AM 48.4°F9.1°C 13.3°F-10.4°C 24% 5.0 mph SSE8.0 kmh SSE 7.0 mph11.3 kmh 29.76 in1007.8 mb 0.00 in0.0 mm 0.00 in0.0 mm 0.00 in0.0 mm
04:15 AM 47.9°F8.8°C 14.7°F-9.6°C 26% 7.0 mph S11.3 kmh S 11.0 mph17.7 kmh 29.75 in1007.5 mb 0.00 in0.0 mm 0.00 in0.0 mm 0.00 in0.0 mm
04:30 AM 47.8°F8.8°C 12.8°F-10.7°C 24% 3.0 mph SSE4.8 kmh SSE 4.0 mph6.4 kmh 29.78 in1008.5 mb 0.00 in0.0 mm 0.00 in0.0 mm 0.00 in0.0 mm
04:45 AM 48.7°F9.3°C 13.5°F-10.3°C 24% 8.0 mph SSE12.9 kmh SSE 11.0 mph17.7 kmh 29.78 in1008.5 mb 0.00 in0.0 mm 0.00 in0.0 mm 0.00 in0.0 mm
05:00 AM 48.5°F9.2°C 14.3°F-9.8°C 25% 7.0 mph SSE11.3 kmh SSE 14.0 mph22.5 kmh 29.76 in1007.8 mb 0.00 in0.0 mm 0.00 in0.0 mm 0.00 in0.0 mm
05:15 AM 48.5°F9.2°C 14.3°F-9.8°C 25% 6.0 mph SE9.7 kmh SE 10.0 mph16.1 kmh 29.76 in1007.8 mb 0.00 in0.0 mm 0.00 in0.0 mm 0.00 in0.0 mm
05:30 AM 46.0°F7.8°C 14.7°F-9.6°C 28% 5.0 mph S8.0 kmh S 5.0 mph8.0 kmh 29.77 in1008.1 mb 0.00 in0.0 mm 0.00 in0.0 mm 0.00 in0.0 mm
05:45 AM 46.3°F7.9°C 15.0°F-9.4°C 28% 7.0 mph SSE11.3 kmh SSE 9.0 mph14.5 kmh 29.78 in1008.5 mb 0.00 in0.0 mm 0.00 in0.0 mm 0.00 in0.0 mm
06:00 AM 45.8°F7.7°C 14.6°F-9.7°C 28% 4.0 mph S6.4 kmh S 12.0 mph19.3 kmh 29.78 in1008.5 mb 0.00 in0.0 mm 0.00 in0.0 mm 0.00 in0.0 mm
06:15 AM 44.7°F7.1°C 18.1°F-7.7°C 34% 7.0 mph SSE11.3 kmh SSE 13.0 mph20.9 kmh 29.79 in1008.8 mb 0.00 in0.0 mm 0.00 in0.0 mm 0.00 in0.0 mm
06:30 AM 43.9°F6.6°C 20.0°F-6.7°C 38% 7.0 mph SSE11.3 kmh SSE 13.0 mph20.9 kmh 29.81 in1009.5 mb 0.00 in0.0 mm 0.00 in0.0 mm 0.00 in0.0 mm
06:45 AM 45.3°F7.4°C 14.9°F-9.5°C 29% 9.0 mph S14.5 kmh S 13.0 mph20.9 kmh 29.82 in1009.8 mb 0.00 in0.0 mm 0.00 in0.0 mm 0.00 in0.0 mm
07:00 AM 47.3°F8.5°C 13.3°F-10.4°C 25% 3.0 mph S4.8 kmh S 9.0 mph14.5 kmh 29.81 in1009.5 mb 0.00 in0.0 mm 0.00 in0.0 mm 0.00 in0.0 mm
07:15 AM 49.7°F9.8°C 10.3°F-12.1°C 20% 7.0 mph SSE11.3 kmh SSE 10.0 mph16.1 kmh 29.80 in1009.1 mb 0.00 in0.0 mm 0.00 in0.0 mm 0.00 in0.0 mm
07:30 AM 51.6°F10.9°C 10.7°F-11.8°C 19% 4.0 mph S6.4 kmh S 7.0 mph11.3 kmh 29.82 in1009.8 mb 0.00 in0.0 mm 0.00 in0.0 mm 0.00 in0.0 mm
07:45 AM 53.2°F11.8°C 9.5°F-12.5°C 17% 9.0 mph SSE14.5 kmh SSE 9.0 mph14.5 kmh 29.81 in1009.5 mb 0.00 in0.0 mm 0.00 in0.0 mm 0.00 in0.0 mm
08:00 AM 54.1°F12.3°C 7.5°F-13.6°C 15% 4.0 mph SSE6.4 kmh SSE 9.0 mph14.5 kmh 29.81 in1009.5 mb 0.00 in0.0 mm 0.00 in0.0 mm 0.00 in0.0 mm
08:15 AM 54.6°F12.6°C 9.3°F-12.6°C 16% 5.0 mph S8.0 kmh S 10.0 mph16.1 kmh 29.81 in1009.5 mb 0.00 in0.0 mm 0.00 in0.0 mm 0.00 in0.0 mm
08:30 AM 55.8°F13.2°C 7.3°F-13.7°C 14% 9.0 mph SSE14.5 kmh SSE 13.0 mph20.9 kmh 29.81 in1009.5 mb 0.00 in0.0 mm 0.00 in0.0 mm 0.00 in0.0 mm
08:45 AM 56.5°F13.6°C 4.5°F-15.3°C 12% 9.0 mph S14.5 kmh S 16.0 mph25.7 kmh 29.81 in1009.5 mb 0.00 in0.0 mm 0.00 in0.0 mm 0.00 in0.0 mm
09:00 AM 57.6°F14.2°C 7.1°F-13.8°C 13% 10.0 mph S16.1 kmh S 11.0 mph17.7 kmh 29.80 in1009.1 mb 0.00 in0.0 mm 0.00 in0.0 mm 0.00 in0.0 mm
09:15 AM 58.0°F14.4°C 5.7°F-14.6°C 12% 5.0 mph S8.0 kmh S 13.0 mph20.9 kmh 29.80 in1009.1 mb 0.00 in0.0 mm 0.00 in0.0 mm 0.00 in0.0 mm
09:30 AM 59.2°F15.1°C -4.9°F-20.5°C 7% 9.0 mph S14.5 kmh S 16.0 mph25.7 kmh 29.80 in1009.1 mb 0.00 in0.0 mm 0.00 in0.0 mm 0.00 in0.0 mm
09:45 AM 60.0°F15.6°C -1.5°F-18.6°C 8% 12.0 mph S19.3 kmh S 13.0 mph20.9 kmh 29.80 in1009.1 mb 0.00 in0.0 mm 0.00 in0.0 mm 0.00 in0.0 mm
10:00 AM 61.2°F16.2°C -0.6°F-18.1°C 8% 8.0 mph S12.9 kmh S 11.0 mph17.7 kmh 29.80 in1009.1 mb 0.00 in0.0 mm 0.00 in0.0 mm 0.00 in0.0 mm
10:15 AM 62.5°F16.9°C -5.6°F-20.9°C 6% 1.0 mph WSW1.6 kmh WSW 4.0 mph6.4 kmh 29.79 in1008.8 mb 0.00 in0.0 mm 0.00 in0.0 mm 0.00 in0.0 mm
10:30 AM 64.4°F18.0°C 1.8°F-16.8°C 8% 3.0 mph NW4.8 kmh NW 5.0 mph8.0 kmh 29.79 in1008.8 mb 0.00 in0.0 mm 0.00 in0.0 mm 0.00 in0.0 mm
10:45 AM 66.4°F19.1°C -2.8°F-19.3°C 6% Calm Calm 6.0 mph9.7 kmh 29.79 in1008.8 mb 0.00 in0.0 mm 0.00 in0.0 mm 0.00 in0.0 mm
11:00 AM 65.9°F18.8°C 0.1°F-17.7°C 7% 1.0 mph SE1.6 kmh SE 5.0 mph8.0 kmh 29.78 in1008.5 mb 0.00 in0.0 mm 0.00 in0.0 mm 0.00 in0.0 mm
11:15 AM 69.2°F20.7°C 2.5°F-16.4°C 7% 5.0 mph S8.0 kmh S 5.0 mph8.0 kmh 29.77 in1008.1 mb 0.00 in0.0 mm 0.00 in0.0 mm 0.00 in0.0 mm
11:30 AM 70.0°F21.1°C -0.2°F-17.9°C 6% Calm Calm 7.0 mph11.3 kmh 29.77 in1008.1 mb 0.00 in0.0 mm 0.00 in0.0 mm 0.00 in0.0 mm
11:45 AM 70.5°F21.4°C -3.7°F-19.8°C 5% 6.0 mph SSE9.7 kmh SSE 6.0 mph9.7 kmh 29.77 in1008.1 mb 0.00 in0.0 mm 0.00 in0.0 mm 0.00 in0.0 mm
12:00 PM 69.7°F20.9°C 8.4°F-13.1°C 9% 7.0 mph WSW11.3 kmh WSW 11.0 mph17.7 kmh 29.77 in1008.1 mb 0.00 in0.0 mm 0.00 in0.0 mm 0.00 in0.0 mm
12:15 PM 70.9°F21.6°C 11.7°F-11.3°C 10% 2.0 mph W3.2 kmh W 6.0 mph9.7 kmh 29.77 in1008.1 mb 0.00 in0.0 mm 0.00 in0.0 mm 0.00 in0.0 mm
12:30 PM 71.1°F21.7°C 11.8°F-11.2°C 10% 10.0 mph SSE16.1 kmh SSE 10.0 mph16.1 kmh 29.77 in1008.1 mb 0.00 in0.0 mm 0.00 in0.0 mm 0.00 in0.0 mm
12:45 PM 72.1°F22.3°C 4.7°F-15.2°C 7% 2.0 mph WNW3.2 kmh WNW 8.0 mph12.9 kmh 29.77 in1008.1 mb 0.00 in0.0 mm 0.00 in0.0 mm 0.00 in0.0 mm
01:00 PM 69.9°F21.1°C 10.9°F-11.7°C 10% 3.0 mph NW4.8 kmh NW 7.0 mph11.3 kmh 29.77 in1008.1 mb 0.00 in0.0 mm 0.00 in0.0 mm 0.00 in0.0 mm
01:15 PM 68.7°F20.4°C 10.0°F-12.2°C 10% 2.0 mph WSW3.2 kmh WSW 10.0 mph16.1 kmh 29.78 in1008.5 mb 0.00 in0.0 mm 0.00 in0.0 mm 0.00 in0.0 mm
01:30 PM 68.4°F20.2°C 9.7°F-12.4°C 10% 13.0 mph WSW20.9 kmh WSW 13.0 mph20.9 kmh 29.80 in1009.1 mb 0.00 in0.0 mm 0.00 in0.0 mm 0.00 in0.0 mm
01:45 PM 69.9°F21.1°C -0.3°F-17.9°C 6% 2.0 mph W3.2 kmh W 6.0 mph9.7 kmh 29.80 in1009.1 mb 0.00 in0.0 mm 0.00 in0.0 mm 0.00 in0.0 mm
02:00 PM 70.9°F21.6°C 6.7°F-14.1°C 8% 3.0 mph W4.8 kmh W 5.0 mph8.0 kmh 29.78 in1008.5 mb 0.00 in0.0 mm 0.00 in0.0 mm 0.00 in0.0 mm
02:15 PM 69.7°F20.9°C 8.4°F-13.1°C 9% 6.0 mph WNW9.7 kmh WNW 11.0 mph17.7 kmh 29.78 in1008.5 mb 0.00 in0.0 mm 0.00 in0.0 mm 0.00 in0.0 mm
02:30 PM 69.4°F20.8°C 10.5°F-11.9°C 10% 2.0 mph WSW3.2 kmh WSW 6.0 mph9.7 kmh 29.79 in1008.8 mb 0.00 in0.0 mm 0.00 in0.0 mm 0.00 in0.0 mm
02:45 PM 68.7°F20.4°C 19.2°F-7.1°C 15% 1.0 mph NW1.6 kmh NW 11.0 mph17.7 kmh 29.78 in1008.5 mb 0.00 in0.0 mm 0.00 in0.0 mm 0.00 in0.0 mm
03:00 PM 68.4°F20.2°C 19.0°F-7.2°C 15% 1.0 mph WSW1.6 kmh WSW 5.0 mph8.0 kmh 29.78 in1008.5 mb 0.00 in0.0 mm 0.00 in0.0 mm 0.00 in0.0 mm
03:15 PM 71.1°F21.7°C 6.8°F-14.0°C 8% 3.0 mph SW4.8 kmh SW 9.0 mph14.5 kmh 29.78 in1008.5 mb 0.00 in0.0 mm 0.00 in0.0 mm 0.00 in0.0 mm
03:30 PM 70.9°F21.6°C 6.7°F-14.1°C 8% 2.0 mph SE3.2 kmh SE 9.0 mph14.5 kmh 29.77 in1008.1 mb 0.00 in0.0 mm 0.00 in0.0 mm 0.00 in0.0 mm
03:45 PM 70.5°F21.4°C 9.0°F-12.8°C 9% 3.0 mph SSE4.8 kmh SSE 10.0 mph16.1 kmh 29.77 in1008.1 mb 0.00 in0.0 mm 0.00 in0.0 mm 0.00 in0.0 mm
04:00 PM 70.5°F21.4°C 11.3°F-11.5°C 10% 7.0 mph S11.3 kmh S 11.0 mph17.7 kmh 29.76 in1007.8 mb 0.00 in0.0 mm 0.00 in0.0 mm 0.00 in0.0 mm
04:15 PM 69.9°F21.1°C 13.0°F-10.6°C 11% 9.0 mph S14.5 kmh S 12.0 mph19.3 kmh 29.77 in1008.1 mb 0.00 in0.0 mm 0.00 in0.0 mm 0.00 in0.0 mm
04:30 PM 68.5°F20.3°C 15.8°F-9.0°C 13% 5.0 mph SE8.0 kmh SE 5.0 mph8.0 kmh 29.77 in1008.1 mb 0.00 in0.0 mm 0.00 in0.0 mm 0.00 in0.0 mm
04:45 PM 68.4°F20.2°C 9.7°F-12.4°C 10% 3.0 mph SSE4.8 kmh SSE 4.0 mph6.4 kmh 29.78 in1008.5 mb 0.00 in0.0 mm 0.00 in0.0 mm 0.00 in0.0 mm
05:00 PM 68.5°F20.3°C 9.8°F-12.3°C 10% Calm Calm 5.0 mph8.0 kmh 29.77 in1008.1 mb 0.00 in0.0 mm 0.00 in0.0 mm 0.00 in0.0 mm
05:15 PM 67.9°F19.9°C 18.6°F-7.4°C 15% 4.0 mph S6.4 kmh S 9.0 mph14.5 kmh 29.77 in1008.1 mb 0.00 in0.0 mm 0.00 in0.0 mm 0.00 in0.0 mm
05:30 PM 66.2°F19.0°C 13.9°F-10.1°C 13% 6.0 mph S9.7 kmh S 17.0 mph27.4 kmh 29.78 in1008.5 mb 0.00 in0.0 mm 0.00 in0.0 mm 0.00 in0.0 mm
05:45 PM 66.9°F19.4°C 8.6°F-13.0°C 10% 7.0 mph SSE11.3 kmh SSE 8.0 mph12.9 kmh 29.80 in1009.1 mb 0.00 in0.0 mm 0.00 in0.0 mm 0.00 in0.0 mm
06:00 PM 66.4°F19.1°C 10.3°F-12.1°C 11% 10.0 mph S16.1 kmh S 14.0 mph22.5 kmh 29.80 in1009.1 mb 0.00 in0.0 mm 0.00 in0.0 mm 0.00 in0.0 mm
06:15 PM 66.5°F19.2°C 12.4°F-10.9°C 12% 7.0 mph S11.3 kmh S 10.0 mph16.1 kmh 29.79 in1008.8 mb 0.00 in0.0 mm 0.00 in0.0 mm 0.00 in0.0 mm
06:30 PM 65.4°F18.6°C 11.5°F-11.4°C 12% 5.0 mph S8.0 kmh S 12.0 mph19.3 kmh 29.79 in1008.8 mb 0.00 in0.0 mm 0.00 in0.0 mm 0.00 in0.0 mm
06:45 PM 63.5°F17.5°C 11.8°F-11.2°C 13% 12.0 mph S19.3 kmh S 13.0 mph20.9 kmh 29.80 in1009.1 mb 0.00 in0.0 mm 0.00 in0.0 mm 0.00 in0.0 mm
07:00 PM 63.0°F17.2°C 5.6°F-14.7°C 10% 5.0 mph S8.0 kmh S 15.0 mph24.1 kmh 29.82 in1009.8 mb 0.00 in0.0 mm 0.00 in0.0 mm 0.00 in0.0 mm
07:15 PM 62.7°F17.1°C -2.3°F-19.1°C 7% 5.0 mph S8.0 kmh S 7.0 mph11.3 kmh 29.81 in1009.5 mb 0.00 in0.0 mm 0.00 in0.0 mm 0.00 in0.0 mm
07:30 PM 62.3°F16.8°C -5.8°F-21.0°C 6% 10.0 mph E16.1 kmh E 10.0 mph16.1 kmh 29.78 in1008.5 mb 0.00 in0.0 mm 0.00 in0.0 mm 0.00 in0.0 mm
07:45 PM 62.2°F16.8°C -5.9°F-21.1°C 6% 10.0 mph S16.1 kmh S 11.0 mph17.7 kmh 29.77 in1008.1 mb 0.00 in0.0 mm 0.00 in0.0 mm 0.00 in0.0 mm
08:00 PM 61.7°F16.5°C -6.2°F-21.2°C 6% 4.0 mph S6.4 kmh S 7.0 mph11.3 kmh 29.78 in1008.5 mb 0.00 in0.0 mm 0.00 in0.0 mm 0.00 in0.0 mm
08:15 PM 61.1°F16.2°C -3.5°F-19.7°C 7% 15.0 mph S24.1 kmh S 15.0 mph24.1 kmh 29.77 in1008.1 mb 0.00 in0.0 mm 0.00 in0.0 mm 0.00 in0.0 mm
08:30 PM 60.5°F15.8°C -7.1°F-21.7°C 6% 4.0 mph SSW6.4 kmh SSW 8.0 mph12.9 kmh 29.77 in1008.1 mb 0.00 in0.0 mm 0.00 in0.0 mm 0.00 in0.0 mm
08:45 PM 61.1°F16.2°C -6.7°F-21.5°C 6% 3.0 mph SSE4.8 kmh SSE 11.0 mph17.7 kmh 29.77 in1008.1 mb 0.00 in0.0 mm 0.00 in0.0 mm 0.00 in0.0 mm
09:00 PM 61.4°F16.3°C -3.2°F-19.6°C 7% 4.0 mph SSW6.4 kmh SSW 9.0 mph14.5 kmh 29.76 in1007.8 mb 0.00 in0.0 mm 0.00 in0.0 mm 0.00 in0.0 mm
09:15 PM 61.4°F16.3°C -3.2°F-19.6°C 7% 9.0 mph SE14.5 kmh SE 9.0 mph14.5 kmh 29.76 in1007.8 mb 0.00 in0.0 mm 0.00 in0.0 mm 0.00 in0.0 mm
09:30 PM 61.1°F16.2°C -6.7°F-21.5°C 6% 7.0 mph SSW11.3 kmh SSW 15.0 mph24.1 kmh 29.75 in1007.5 mb 0.00 in0.0 mm 0.00 in0.0 mm 0.00 in0.0 mm
09:45 PM 60.1°F15.6°C -4.2°F-20.1°C 7% 7.0 mph S11.3 kmh S 16.0 mph25.7 kmh 29.75 in1007.5 mb 0.00 in0.0 mm 0.00 in0.0 mm 0.00 in0.0 mm
10:00 PM 60.3°F15.7°C -4.1°F-20.1°C 7% 1.0 mph S1.6 kmh S 10.0 mph16.1 kmh 29.76 in1007.8 mb 0.00 in0.0 mm 0.00 in0.0 mm 0.00 in0.0 mm
10:15 PM 60.1°F15.6°C -7.4°F-21.9°C 6% 13.0 mph S20.9 kmh S 14.0 mph22.5 kmh 29.75 in1007.5 mb 0.00 in0.0 mm 0.00 in0.0 mm 0.00 in0.0 mm
10:30 PM 59.7°F15.4°C -7.7°F-22.1°C 6% 6.0 mph S9.7 kmh S 11.0 mph17.7 kmh 29.74 in1007.1 mb 0.00 in0.0 mm 0.00 in0.0 mm 0.00 in0.0 mm
10:45 PM 58.9°F14.9°C -11.9°F-24.4°C 5% 7.0 mph S11.3 kmh S 9.0 mph14.5 kmh 29.74 in1007.1 mb 0.00 in0.0 mm 0.00 in0.0 mm 0.00 in0.0 mm
11:00 PM 58.2°F14.6°C -12.4°F-24.7°C 5% 6.0 mph SW9.7 kmh SW 7.0 mph11.3 kmh 29.73 in1006.8 mb 0.00 in0.0 mm 0.00 in0.0 mm 0.00 in0.0 mm
11:15 PM 58.3°F14.6°C -12.4°F-24.7°C 5% 4.0 mph S6.4 kmh S 6.0 mph9.7 kmh 29.72 in1006.4 mb 0.00 in0.0 mm 0.00 in0.0 mm 0.00 in0.0 mm
11:30 PM 58.2°F14.6°C -12.4°F-24.7°C 5% 3.0 mph S4.8 kmh S 6.0 mph9.7 kmh 29.72 in1006.4 mb 0.00 in0.0 mm 0.00 in0.0 mm 0.00 in0.0 mm
11:45 PM 58.2°F14.6°C -12.4°F-24.7°C 5% 5.0 mph S8.0 kmh S 7.0 mph11.3 kmh 29.72 in1006.4 mb 0.00 in0.0 mm 0.00 in0.0 mm 0.00 in0.0 mm